Flight Track Log - Related Links

Times and Time Zones

All times are in EDT time to prevent confusion due to time zone crossing. See the N414DJ flight status page for this flight to view local times or setup timezone preferences in your user account.


Time Position Orientation Groundspeed Altitude Reporting Facility
EDT Latitude Longitude Course Direction KTS MPH feet Rate Location/Type
Sun 08:16:44 PM 43.0206 -73.8683 189° South 108 124 2,000  Level Boston Center
Sun 08:17:38 PM 42.9939 -73.8739 189° South 112 129 2,400 483 Climbing Boston Center
Sun 08:18:11 PM 42.9750 -73.8772 187° South 110 127 2,700 545 Climbing Boston Center
Sun 08:18:44 PM 42.9581 -73.8819 192° South 115 132 3,000 492 Climbing Boston Center
Sun 08:19:12 PM 42.9433 -73.8842 186° South 113 130 3,200 393 Climbing Boston Center
Sun 08:19:45 PM 42.9247 -73.8883 189° South 120 138 3,400 400 Climbing Boston Center
Sun 08:20:12 PM 42.9100 -73.8906 186° South 117 135 3,600 393 Climbing Boston Center
Sun 08:20:46 PM 42.8914 -73.8944 189° South 121 139 3,800 469 Climbing Boston Center
Sun 08:21:16 PM 42.8742 -73.8981 189° South 119 137 4,100 500 Climbing Boston Center
Sun 08:21:46 PM 42.8581 -73.9006 186° South 123 142 4,300 400 Climbing Boston Center
Sun 08:22:16 PM 42.8394 -73.9039 187° South 122 140 4,500 197 Climbing Boston Center
Sun 08:22:47 PM 42.8200 -73.9081 189° South 126 145 4,500  Level Boston Center
Sun 08:23:17 PM 42.8033 -73.9119 190° South 132 152 4,500  Level Boston Center
Sun 08:23:47 PM 42.7817 -73.9183 192° South 147 169 4,500  Level Boston Center
Sun 08:24:18 PM 42.7603 -73.9211 185° South 142 163 4,500  Level Boston Center
Sun 08:24:48 PM 42.7417 -73.9253 189° South 148 170 4,500  Level Boston Center
Sun 08:25:19 PM 42.7206 -73.9286 187° South 143 165 4,500  Level Boston Center
Sun 08:25:49 PM 42.7017 -73.9319 187° South 147 169 4,500  Level Boston Center
Sun 08:26:22 PM 42.6806 -73.9364 189° South 143 165 4,500  Level Boston Center
Sun 08:26:49 PM 42.6592 -73.9408 189° South 145 167 4,500  Level Boston Center
Sun 08:27:24 PM 42.6381 -73.9447 188° South 143 165 4,500  Level Boston Center
Sun 08:27:51 PM 42.6194 -73.9478 187° South 142 163 4,500  Level Boston Center
Sun 08:28:24 PM 42.5994 -73.9525 190° South 143 165 4,500  Level Boston Center
Sun 08:28:52 PM 42.5814 -73.9553 186° South 140 161 4,500  Level Boston Center
Sun 08:29:25 PM 42.5614 -73.9594 189° South 142 163 4,500  Level Boston Center
Sun 08:29:53 PM 42.5431 -73.9653 193° South 140 161 4,500  Level Boston Center
Sun 08:30:27 PM 42.5219 -73.9678 185° South 142 163 4,500  Level Boston Center
Sun 08:31:00 PM 42.4964 -73.9728 188° South 144 166 4,500  Level Boston Center
Sun 08:31:27 PM 42.4794 -73.9761 188° South 142 163 4,500  Level Boston Center
Sun 08:32:01 PM 42.4586 -73.9803 188° South 143 165 4,500  Level Boston Center
Sun 08:32:28 PM 42.4403 -73.9836 188° South 142 163 4,500  Level Boston Center
Sun 08:33:01 PM 42.4186 -73.9869 186° South 141 162 4,500  Level Boston Center
Sun 08:33:29 PM 42.4022 -73.9908 190° South 142 163 4,500  Level Boston Center
Sun 08:34:02 PM 42.3808 -73.9944 187° South 142 163 4,500  Level Boston Center
Sun 08:34:29 PM 42.3625 -73.9992 191° South 142 163 4,500  Level Boston Center
Sun 08:35:02 PM 42.3403 -74.0039 189° South 144 166 4,500  Level Boston Center
Sun 08:35:33 PM 42.3200 -74.0072 187° South 142 163 4,500  Level Boston Center
Sun 08:36:03 PM 42.3022 -74.0114 190° South 142 163 4,500  Level Boston Center
Sun 08:36:33 PM 42.2814 -74.0144 186° South 142 163 4,500  Level Boston Center
Sun 08:37:03 PM 42.2600 -74.0200 191° South 142 163 4,500  Level Boston Center
Sun 08:37:35 PM 42.2417 -74.0233 188° South 142 163 4,500  Level Boston Center
Sun 08:38:35 PM 42.2006 -74.0294 186° South 142 163 4,500  Level Boston Center
Sun 08:39:36 PM 42.1611 -74.0381 189° South 142 163 4,500  Level Boston Center
Sun 08:40:37 PM 42.1222 -74.0450 188° South 142 163 4,500  Level Boston Center
Sun 08:41:38 PM 42.0825 -74.0517 187° South 142 163 4,500  Level Boston Center
Sun 08:42:38 PM 42.0425 -74.0617 191° South 140 161 4,500  Level Boston Center
Sun 08:43:42 PM 42.0047 -74.0675 187° South 139 160 4,500  Level Boston Center
Sun 08:44:42 PM 41.9672 -74.0742 188° South 138 159 4,500  Level Boston Center
Sun 08:45:43 PM 41.9264 -74.0828 189° South 138 159 4,500  Level Boston Center
Sun 08:46:44 PM 41.8878 -74.0903 188° South 138 159 4,500  Level Boston Center
Sun 08:47:44 PM 41.8497 -74.0978 188° South 138 159 4,500  Level Boston Center
Sun 08:48:46 PM 41.8122 -74.1047 188° South 138 159 4,500  Level Boston Center
Sun 08:49:47 PM 41.7719 -74.1122 188° South 138 159 4,500  Level Boston Center
Sun 08:50:47 PM 41.7336 -74.1203 189° South 138 159 4,500  Level Boston Center
Sun 08:51:48 PM 41.6958 -74.1258 186° South 138 159 4,500  Level Boston Center
Sun 08:52:51 PM 41.6594 -74.1056 157° South 141 162 4,500  Level Boston Center
Sun 08:53:52 PM 41.6222 -74.1033 177° South 140 161 4,500  Level Boston Center
Sun 08:54:53 PM 41.5819 -74.1139 191° South 139 160 4,500  Level Boston Center
Sun 08:55:54 PM 41.5436 -74.1231 190° South 139 160 4,500  Level Boston Center
Sun 08:56:55 PM 41.5061 -74.1328 191° South 139 160 4,500  Level Boston Center
Sun 08:57:56 PM 41.4653 -74.1422 190° South 139 160 4,500  Level Boston Center
Sun 08:58:57 PM 41.4269 -74.1517 190° South 139 160 4,500  Level Boston Center
Sun 08:59:55 PM 41.3883 -74.1611 190° South 139 160 4,500  Level Boston Center
Sun 09:00:59 PM 41.3500 -74.1700 190° South 140 161 4,500  Level Boston Center
Sun 09:01:58 PM 41.3092 -74.1800 190° South 140 161 4,500  Level Boston Center
Sun 09:02:58 PM 41.2714 -74.1889 190° South 139 160 4,500 -198 Level Boston Center
Sun 09:03:59 PM 41.2319 -74.1981 190° South 141 162 4,100 -384 Descending Boston Center
Sun 09:05:03 PM 41.1908 -74.2083 191° South 148 170 3,700 -336 Descending Boston Center
Sun 09:06:04 PM 41.1494 -74.2181 190° South 148 170 3,400 -356 Descending Boston Center
Sun 09:07:01 PM 41.1000 -74.2333 193° South 154 177 3,000 -410 Descending New York TRACON
Sun 09:08:01 PM 41.0667 -74.2333 180° South 155 178 2,600 -350 Descending New York TRACON
Sun 09:09:01 PM 41.0167 -74.2500 194° South 153 176 2,300 -300 Descending New York TRACON
Sun 09:10:01 PM 40.9833 -74.2333 159° South 154 177 2,000 -400 Descending New York TRACON
Sun 09:11:01 PM 40.9333 -74.2333 180° South 142 163 1,500 -300 Descending New York TRACON
Sun 09:12:01 PM 40.9167 -74.2500 217° Southwest 82 94 1,400 -300 Descending New York TRACON
Sun 09:13:01 PM 40.9000 -74.2667 217° Southwest 85 98 900 -500 Descending New York TRACON

Login

Don't have an account? Register now (free) for customized features, flight alerts, and more!